首页
METAR-TAF:

METAR-TAF

机场 :

门多萨, 阿根廷

纬度: 32-50S, 经度: 068-47W, 海拔: 705米

当前天气观测

该预报发布于1小时和16分钟前的12:00 UTC
风速6节,风向东北
温度 23°C
湿度 61%
气压 1018 hPa
能见度10公里或以上
少量云层高于4500英尺, 塔状积云.
散云层高于5000英尺

METAR: SAME 171200Z 05006KT 9999 FEW045TCU SCT050 23/15 Q1018

时间: 10:16 (13:16 UTC)

预报

该预报发布于2小时和16分钟前的11:00 UTC
预报有效从17日的 12点(UTC)到 18日的 12点(UTC)
风速5节,风向东南
能见度10公里或以上
散云层高于4000英尺
少量云层高于4000英尺, 塔状积云.
成为
从 18日的 00点(UTC)到 18日的 02点(UTC)
风速10节,风向东南
能見度: 8000
多云层高于4000英尺
少量云层高于5000英尺, 积雨云.
雷暴, 雨

TAF: SAME 171100Z 1712/1812 14005KT 9999 SCT040 FEW040TCU TX28/1720Z TN20/1810Z BECMG 1800/1802 14010KT 8000 TSRA BKN040 FEW050CB

超过4000个机场的气象观测和天气预报(METAR&TAF报告)。

可查询的气象台以黄色和红色小点在地图上表示。

将鼠标移到小点上方,可查看气象台名称。

然后点击查看天气观测和预报。

如需切换地图:点击带黑十字的绿色按钮放大地图;点击带横线的绿色按钮缩小地图;或者点击绿色箭头查看邻近地区的地图。


METAR-TAF: